sensor_id;sensor_type;location;lat;lon;timestamp;temperature;humidity
26655;DHT22;14278;50.784;4.630;2022-11-20T00:01:24;6.60;99.90
26655;DHT22;14278;50.784;4.630;2022-11-20T00:03:51;6.60;99.90
26655;DHT22;14278;50.784;4.630;2022-11-20T00:06:19;6.60;99.90
26655;DHT22;14278;50.784;4.630;2022-11-20T00:08:45;6.80;99.90
26655;DHT22;14278;50.784;4.630;2022-11-20T00:11:14;6.50;99.90
26655;DHT22;14278;50.784;4.630;2022-11-20T00:13:40;6.50;99.90
26655;DHT22;14278;50.784;4.630;2022-11-20T00:16:09;6.80;99.90
26655;DHT22;14278;50.784;4.630;2022-11-20T00:18:36;6.70;99.90
26655;DHT22;14278;50.784;4.630;2022-11-20T00:21:06;6.70;99.90
26655;DHT22;14278;50.784;4.630;2022-11-20T00:23:32;5.90;99.90
26655;DHT22;14278;50.784;4.630;2022-11-20T00:26:06;6.30;99.90
26655;DHT22;14278;50.784;4.630;2022-11-20T00:28:33;6.50;99.90
26655;DHT22;14278;50.784;4.630;2022-11-20T00:31:11;6.60;99.90
26655;DHT22;14278;50.784;4.630;2022-11-20T00:33:37;6.70;99.90
26655;DHT22;14278;50.784;4.630;2022-11-20T00:36:11;6.60;99.90
26655;DHT22;14278;50.784;4.630;2022-11-20T00:38:37;6.30;99.90
26655;DHT22;14278;50.784;4.630;2022-11-20T00:41:05;6.70;99.90
26655;DHT22;14278;50.784;4.630;2022-11-20T00:43:32;6.60;99.90
26655;DHT22;14278;50.784;4.630;2022-11-20T00:46:03;6.40;99.90
26655;DHT22;14278;50.784;4.630;2022-11-20T00:48:32;6.60;99.90
26655;DHT22;14278;50.784;4.630;2022-11-20T00:50:58;6.80;99.90
26655;DHT22;14278;50.784;4.630;2022-11-20T00:53:24;6.90;99.90
26655;DHT22;14278;50.784;4.630;2022-11-20T00:56:04;7.00;99.90
26655;DHT22;14278;50.784;4.630;2022-11-20T00:58:33;6.80;99.90
26655;DHT22;14278;50.784;4.630;2022-11-20T01:01:05;6.90;99.90
26655;DHT22;14278;50.784;4.630;2022-11-20T01:03:32;6.90;99.90
26655;DHT22;14278;50.784;4.630;2022-11-20T01:06:06;6.90;99.90
26655;DHT22;14278;50.784;4.630;2022-11-20T01:08:34;6.90;99.90
26655;DHT22;14278;50.784;4.630;2022-11-20T01:11:01;6.90;99.90
26655;DHT22;14278;50.784;4.630;2022-11-20T01:13:28;7.00;99.90
26655;DHT22;14278;50.784;4.630;2022-11-20T01:16:20;6.70;99.90
26655;DHT22;14278;50.784;4.630;2022-11-20T01:18:48;6.70;99.90
26655;DHT22;14278;50.784;4.630;2022-11-20T01:21:23;6.70;99.90
26655;DHT22;14278;50.784;4.630;2022-11-20T01:23:50;6.70;99.90
26655;DHT22;14278;50.784;4.630;2022-11-20T01:26:18;6.90;99.90
26655;DHT22;14278;50.784;4.630;2022-11-20T01:28:45;6.70;99.90
26655;DHT22;14278;50.784;4.630;2022-11-20T01:31:16;6.50;99.90
26655;DHT22;14278;50.784;4.630;2022-11-20T01:33:43;6.80;99.90
26655;DHT22;14278;50.784;4.630;2022-11-20T01:36:10;6.20;99.90
26655;DHT22;14278;50.784;4.630;2022-11-20T01:38:36;5.90;99.90
26655;DHT22;14278;50.784;4.630;2022-11-20T01:41:02;6.20;99.90
26655;DHT22;14278;50.784;4.630;2022-11-20T01:43:28;6.30;99.90
26655;DHT22;14278;50.784;4.630;2022-11-20T01:46:12;6.60;99.90
26655;DHT22;14278;50.784;4.630;2022-11-20T01:54:38;6.80;99.90
26655;DHT22;14278;50.784;4.630;2022-11-20T01:57:07;7.00;99.90
26655;DHT22;14278;50.784;4.630;2022-11-20T01:59:34;7.10;99.90
26655;DHT22;14278;50.784;4.630;2022-11-20T02:02:02;7.20;99.90
26655;DHT22;14278;50.784;4.630;2022-11-20T02:04:28;6.70;99.90
26655;DHT22;14278;50.784;4.630;2022-11-20T02:07:01;6.60;99.90
26655;DHT22;14278;50.784;4.630;2022-11-20T02:09:28;6.40;99.90
26655;DHT22;14278;50.784;4.630;2022-11-20T02:11:55;6.30;99.90
26655;DHT22;14278;50.784;4.630;2022-11-20T02:14:22;6.70;99.90
26655;DHT22;14278;50.784;4.630;2022-11-20T02:16:49;6.50;99.90
26655;DHT22;14278;50.784;4.630;2022-11-20T02:19:27;6.50;99.90
26655;DHT22;14278;50.784;4.630;2022-11-20T02:24:25;6.60;99.90
26655;DHT22;14278;50.784;4.630;2022-11-20T02:26:59;6.90;99.90
26655;DHT22;14278;50.784;4.630;2022-11-20T02:29:52;7.20;99.90
26655;DHT22;14278;50.784;4.630;2022-11-20T02:32:27;7.30;99.90
26655;DHT22;14278;50.784;4.630;2022-11-20T02:34:54;7.10;99.90
26655;DHT22;14278;50.784;4.630;2022-11-20T02:37:20;6.60;99.90
26655;DHT22;14278;50.784;4.630;2022-11-20T02:39:49;6.50;99.90
26655;DHT22;14278;50.784;4.630;2022-11-20T02:42:15;6.80;99.90
26655;DHT22;14278;50.784;4.630;2022-11-20T02:44:41;7.10;99.90
26655;DHT22;14278;50.784;4.630;2022-11-20T02:47:07;7.10;99.90
26655;DHT22;14278;50.784;4.630;2022-11-20T02:49:33;7.10;99.90
26655;DHT22;14278;50.784;4.630;2022-11-20T02:51:59;7.10;99.90
26655;DHT22;14278;50.784;4.630;2022-11-20T02:54:25;7.10;99.90
26655;DHT22;14278;50.784;4.630;2022-11-20T02:56:51;7.20;99.90
26655;DHT22;14278;50.784;4.630;2022-11-20T02:59:18;7.10;99.90
26655;DHT22;14278;50.784;4.630;2022-11-20T03:01:44;6.70;99.90
26655;DHT22;14278;50.784;4.630;2022-11-20T03:04:09;6.70;99.90
26655;DHT22;14278;50.784;4.630;2022-11-20T03:06:35;7.00;99.90
26655;DHT22;14278;50.784;4.630;2022-11-20T03:09:01;6.90;99.90
26655;DHT22;14278;50.784;4.630;2022-11-20T03:11:27;6.70;99.90
26655;DHT22;14278;50.784;4.630;2022-11-20T03:13:53;6.90;99.90
26655;DHT22;14278;50.784;4.630;2022-11-20T03:16:22;6.90;99.90
26655;DHT22;14278;50.784;4.630;2022-11-20T03:18:48;6.90;99.90
26655;DHT22;14278;50.784;4.630;2022-11-20T03:21:15;7.10;99.90
26655;DHT22;14278;50.784;4.630;2022-11-20T03:23:41;7.00;99.90
26655;DHT22;14278;50.784;4.630;2022-11-20T03:26:13;6.90;99.90
26655;DHT22;14278;50.784;4.630;2022-11-20T03:28:40;6.70;99.90
26655;DHT22;14278;50.784;4.630;2022-11-20T03:31:12;6.90;99.90
26655;DHT22;14278;50.784;4.630;2022-11-20T03:33:39;6.80;99.90
26655;DHT22;14278;50.784;4.630;2022-11-20T03:36:13;6.80;99.90
26655;DHT22;14278;50.784;4.630;2022-11-20T03:38:40;6.80;99.90
26655;DHT22;14278;50.784;4.630;2022-11-20T03:41:11;6.80;99.90
26655;DHT22;14278;50.784;4.630;2022-11-20T03:43:38;6.80;99.90
26655;DHT22;14278;50.784;4.630;2022-11-20T03:46:04;6.60;99.90
26655;DHT22;14278;50.784;4.630;2022-11-20T03:48:31;6.80;99.90
26655;DHT22;14278;50.784;4.630;2022-11-20T03:51:11;6.80;99.90
26655;DHT22;14278;50.784;4.630;2022-11-20T03:53:38;6.80;99.90
26655;DHT22;14278;50.784;4.630;2022-11-20T03:56:04;7.20;99.90
26655;DHT22;14278;50.784;4.630;2022-11-20T03:58:30;6.90;99.90
26655;DHT22;14278;50.784;4.630;2022-11-20T04:00:56;6.50;99.90
26655;DHT22;14278;50.784;4.630;2022-11-20T04:03:22;6.40;99.90
26655;DHT22;14278;50.784;4.630;2022-11-20T04:05:48;6.50;99.90
26655;DHT22;14278;50.784;4.630;2022-11-20T04:08:13;6.60;99.90
26655;DHT22;14278;50.784;4.630;2022-11-20T04:10:39;6.50;99.90
26655;DHT22;14278;50.784;4.630;2022-11-20T04:13:05;6.60;99.90
26655;DHT22;14278;50.784;4.630;2022-11-20T04:15:31;6.60;99.90
26655;DHT22;14278;50.784;4.630;2022-11-20T04:17:57;6.90;99.90
26655;DHT22;14278;50.784;4.630;2022-11-20T04:20:22;6.70;99.90
26655;DHT22;14278;50.784;4.630;2022-11-20T04:22:48;6.30;99.90
26655;DHT22;14278;50.784;4.630;2022-11-20T04:25:15;6.40;99.90
26655;DHT22;14278;50.784;4.630;2022-11-20T04:27:41;6.10;99.90
26655;DHT22;14278;50.784;4.630;2022-11-20T04:30:07;6.30;99.90
26655;DHT22;14278;50.784;4.630;2022-11-20T04:32:33;6.40;99.90
26655;DHT22;14278;50.784;4.630;2022-11-20T04:34:58;6.60;99.90
26655;DHT22;14278;50.784;4.630;2022-11-20T04:37:25;6.50;99.90
26655;DHT22;14278;50.784;4.630;2022-11-20T04:39:50;6.70;99.90
26655;DHT22;14278;50.784;4.630;2022-11-20T04:42:16;7.00;99.90
26655;DHT22;14278;50.784;4.630;2022-11-20T04:44:54;6.90;99.90
26655;DHT22;14278;50.784;4.630;2022-11-20T04:47:20;7.20;99.90
26655;DHT22;14278;50.784;4.630;2022-11-20T04:49:47;7.20;99.90
26655;DHT22;14278;50.784;4.630;2022-11-20T04:52:13;7.40;99.90
26655;DHT22;14278;50.784;4.630;2022-11-20T04:54:39;7.10;99.90
26655;DHT22;14278;50.784;4.630;2022-11-20T04:57:04;6.90;99.90
26655;DHT22;14278;50.784;4.630;2022-11-20T04:59:30;6.90;99.90
26655;DHT22;14278;50.784;4.630;2022-11-20T05:01:56;7.10;99.90
26655;DHT22;14278;50.784;4.630;2022-11-20T05:04:22;7.20;99.90
26655;DHT22;14278;50.784;4.630;2022-11-20T05:06:50;7.30;99.90
26655;DHT22;14278;50.784;4.630;2022-11-20T05:09:16;7.30;99.90
26655;DHT22;14278;50.784;4.630;2022-11-20T05:11:41;7.40;99.90
26655;DHT22;14278;50.784;4.630;2022-11-20T05:14:08;7.30;99.90
26655;DHT22;14278;50.784;4.630;2022-11-20T05:16:34;7.30;99.90
26655;DHT22;14278;50.784;4.630;2022-11-20T05:19:00;7.20;99.90
26655;DHT22;14278;50.784;4.630;2022-11-20T05:21:26;7.10;99.90
26655;DHT22;14278;50.784;4.630;2022-11-20T05:23:52;7.20;99.90
26655;DHT22;14278;50.784;4.630;2022-11-20T05:26:20;6.70;99.90
26655;DHT22;14278;50.784;4.630;2022-11-20T05:28:50;6.60;99.90
26655;DHT22;14278;50.784;4.630;2022-11-20T05:31:21;7.00;99.90
26655;DHT22;14278;50.784;4.630;2022-11-20T05:33:47;7.10;99.90
26655;DHT22;14278;50.784;4.630;2022-11-20T05:36:14;7.20;99.90
26655;DHT22;14278;50.784;4.630;2022-11-20T05:38:40;7.20;99.90
26655;DHT22;14278;50.784;4.630;2022-11-20T05:41:17;7.40;99.90
26655;DHT22;14278;50.784;4.630;2022-11-20T05:43:45;7.40;99.90
26655;DHT22;14278;50.784;4.630;2022-11-20T05:46:13;6.80;99.90
26655;DHT22;14278;50.784;4.630;2022-11-20T05:48:41;6.70;99.90
26655;DHT22;14278;50.784;4.630;2022-11-20T05:51:10;7.10;99.90
26655;DHT22;14278;50.784;4.630;2022-11-20T05:53:36;7.10;99.90
26655;DHT22;14278;50.784;4.630;2022-11-20T05:56:05;7.50;99.90
26655;DHT22;14278;50.784;4.630;2022-11-20T05:58:32;7.50;99.90
26655;DHT22;14278;50.784;4.630;2022-11-20T06:01:22;7.60;99.90
26655;DHT22;14278;50.784;4.630;2022-11-20T06:03:49;7.50;99.90
26655;DHT22;14278;50.784;4.630;2022-11-20T06:06:16;7.20;99.90
26655;DHT22;14278;50.784;4.630;2022-11-20T06:08:43;7.30;99.90
26655;DHT22;14278;50.784;4.630;2022-11-20T06:11:10;7.20;99.90
26655;DHT22;14278;50.784;4.630;2022-11-20T06:13:37;7.30;99.90
26655;DHT22;14278;50.784;4.630;2022-11-20T06:16:03;7.40;99.90
26655;DHT22;14278;50.784;4.630;2022-11-20T06:18:30;7.10;99.90
26655;DHT22;14278;50.784;4.630;2022-11-20T06:21:03;7.20;99.90
26655;DHT22;14278;50.784;4.630;2022-11-20T06:23:30;7.40;99.90
26655;DHT22;14278;50.784;4.630;2022-11-20T06:25:56;7.30;99.90
26655;DHT22;14278;50.784;4.630;2022-11-20T06:28:22;7.20;99.90
26655;DHT22;14278;50.784;4.630;2022-11-20T06:30:48;7.20;99.90
26655;DHT22;14278;50.784;4.630;2022-11-20T06:33:14;7.10;99.90
26655;DHT22;14278;50.784;4.630;2022-11-20T06:35:40;7.00;99.90
26655;DHT22;14278;50.784;4.630;2022-11-20T06:38:05;7.20;99.90
26655;DHT22;14278;50.784;4.630;2022-11-20T06:40:32;6.90;99.90
26655;DHT22;14278;50.784;4.630;2022-11-20T06:43:01;7.10;99.90
26655;DHT22;14278;50.784;4.630;2022-11-20T06:45:27;6.90;99.90
26655;DHT22;14278;50.784;4.630;2022-11-20T06:47:52;6.90;99.90
26655;DHT22;14278;50.784;4.630;2022-11-20T06:50:18;6.70;99.90
26655;DHT22;14278;50.784;4.630;2022-11-20T06:52:44;6.60;99.90
26655;DHT22;14278;50.784;4.630;2022-11-20T06:55:10;6.70;99.90
26655;DHT22;14278;50.784;4.630;2022-11-20T06:57:36;6.90;99.90
26655;DHT22;14278;50.784;4.630;2022-11-20T07:00:02;6.90;99.90
26655;DHT22;14278;50.784;4.630;2022-11-20T07:02:28;7.00;99.90
26655;DHT22;14278;50.784;4.630;2022-11-20T07:04:54;7.00;99.90
26655;DHT22;14278;50.784;4.630;2022-11-20T07:07:20;7.10;99.90
26655;DHT22;14278;50.784;4.630;2022-11-20T07:09:45;7.10;99.90
26655;DHT22;14278;50.784;4.630;2022-11-20T07:12:11;7.20;99.90
26655;DHT22;14278;50.784;4.630;2022-11-20T07:14:37;7.10;99.90
26655;DHT22;14278;50.784;4.630;2022-11-20T07:17:03;7.10;99.90
26655;DHT22;14278;50.784;4.630;2022-11-20T07:19:29;7.00;99.90
26655;DHT22;14278;50.784;4.630;2022-11-20T07:21:54;7.10;99.90
26655;DHT22;14278;50.784;4.630;2022-11-20T07:24:20;7.20;99.90
26655;DHT22;14278;50.784;4.630;2022-11-20T07:26:46;7.40;99.90
26655;DHT22;14278;50.784;4.630;2022-11-20T07:29:14;7.30;99.90
26655;DHT22;14278;50.784;4.630;2022-11-20T07:31:40;7.30;99.90
26655;DHT22;14278;50.784;4.630;2022-11-20T07:34:06;6.80;99.90
26655;DHT22;14278;50.784;4.630;2022-11-20T07:36:32;7.00;99.90
26655;DHT22;14278;50.784;4.630;2022-11-20T07:38:58;7.00;99.90
26655;DHT22;14278;50.784;4.630;2022-11-20T07:41:24;7.10;99.90
26655;DHT22;14278;50.784;4.630;2022-11-20T07:43:50;7.10;99.90
26655;DHT22;14278;50.784;4.630;2022-11-20T07:46:15;7.30;99.90
26655;DHT22;14278;50.784;4.630;2022-11-20T07:48:41;7.30;99.90
26655;DHT22;14278;50.784;4.630;2022-11-20T07:51:07;7.40;99.90
26655;DHT22;14278;50.784;4.630;2022-11-20T07:53:33;7.40;99.90
26655;DHT22;14278;50.784;4.630;2022-11-20T07:56:02;7.40;99.90
26655;DHT22;14278;50.784;4.630;2022-11-20T07:58:31;7.60;99.90
26655;DHT22;14278;50.784;4.630;2022-11-20T08:01:02;7.90;99.90
26655;DHT22;14278;50.784;4.630;2022-11-20T08:03:28;7.70;99.90
26655;DHT22;14278;50.784;4.630;2022-11-20T08:05:54;7.90;99.90
26655;DHT22;14278;50.784;4.630;2022-11-20T08:08:23;8.10;99.90
26655;DHT22;14278;50.784;4.630;2022-11-20T08:10:49;8.00;99.90
26655;DHT22;14278;50.784;4.630;2022-11-20T08:13:15;7.90;99.90
26655;DHT22;14278;50.784;4.630;2022-11-20T08:15:59;8.00;99.90
26655;DHT22;14278;50.784;4.630;2022-11-20T08:18:25;7.80;99.90
26655;DHT22;14278;50.784;4.630;2022-11-20T08:20:51;7.70;99.90
26655;DHT22;14278;50.784;4.630;2022-11-20T08:23:17;7.60;99.90
26655;DHT22;14278;50.784;4.630;2022-11-20T08:25:42;7.70;99.90
26655;DHT22;14278;50.784;4.630;2022-11-20T08:28:09;7.70;99.90
26655;DHT22;14278;50.784;4.630;2022-11-20T08:30:36;7.80;99.90
26655;DHT22;14278;50.784;4.630;2022-11-20T08:33:07;8.10;99.90
26655;DHT22;14278;50.784;4.630;2022-11-20T08:35:36;8.30;99.90
26655;DHT22;14278;50.784;4.630;2022-11-20T08:38:04;8.50;99.90
26655;DHT22;14278;50.784;4.630;2022-11-20T08:40:30;8.50;99.90
26655;DHT22;14278;50.784;4.630;2022-11-20T08:42:56;8.60;99.90
26655;DHT22;14278;50.784;4.630;2022-11-20T08:45:22;8.50;99.90
26655;DHT22;14278;50.784;4.630;2022-11-20T08:47:48;8.50;99.90
26655;DHT22;14278;50.784;4.630;2022-11-20T08:50:15;8.50;99.90
26655;DHT22;14278;50.784;4.630;2022-11-20T08:52:41;8.60;99.90
26655;DHT22;14278;50.784;4.630;2022-11-20T08:55:09;8.70;99.90
26655;DHT22;14278;50.784;4.630;2022-11-20T08:57:36;8.70;99.90
26655;DHT22;14278;50.784;4.630;2022-11-20T09:00:04;8.70;99.90
26655;DHT22;14278;50.784;4.630;2022-11-20T09:02:30;8.40;99.90
26655;DHT22;14278;50.784;4.630;2022-11-20T09:05:00;8.40;99.90
26655;DHT22;14278;50.784;4.630;2022-11-20T09:07:28;8.40;99.90
26655;DHT22;14278;50.784;4.630;2022-11-20T09:09:54;8.40;99.90
26655;DHT22;14278;50.784;4.630;2022-11-20T09:12:20;8.60;99.90
26655;DHT22;14278;50.784;4.630;2022-11-20T09:14:45;8.60;99.90
26655;DHT22;14278;50.784;4.630;2022-11-20T09:17:11;8.60;99.90
26655;DHT22;14278;50.784;4.630;2022-11-20T09:19:39;8.60;99.90
26655;DHT22;14278;50.784;4.630;2022-11-20T09:22:05;8.90;99.90
26655;DHT22;14278;50.784;4.630;2022-11-20T09:24:31;9.00;99.90
26655;DHT22;14278;50.784;4.630;2022-11-20T09:26:57;9.00;99.90
26655;DHT22;14278;50.784;4.630;2022-11-20T09:29:22;9.10;99.90
26655;DHT22;14278;50.784;4.630;2022-11-20T09:31:49;9.30;99.90
26655;DHT22;14278;50.784;4.630;2022-11-20T09:34:14;9.40;99.90
26655;DHT22;14278;50.784;4.630;2022-11-20T09:36:40;9.50;99.90
26655;DHT22;14278;50.784;4.630;2022-11-20T09:39:06;9.70;99.90
26655;DHT22;14278;50.784;4.630;2022-11-20T09:47:10;9.80;99.90
26655;DHT22;14278;50.784;4.630;2022-11-20T09:52:36;9.80;99.90
26655;DHT22;14278;50.784;4.630;2022-11-20T09:55:08;10.00;99.90
26655;DHT22;14278;50.784;4.630;2022-11-20T09:57:37;10.00;99.90
26655;DHT22;14278;50.784;4.630;2022-11-20T10:00:06;9.70;99.90
26655;DHT22;14278;50.784;4.630;2022-11-20T10:02:53;9.80;99.90
26655;DHT22;14278;50.784;4.630;2022-11-20T10:05:22;10.00;99.90
26655;DHT22;14278;50.784;4.630;2022-11-20T10:08:08;10.00;99.90
26655;DHT22;14278;50.784;4.630;2022-11-20T10:11:00;9.90;99.90
26655;DHT22;14278;50.784;4.630;2022-11-20T10:16:26;10.00;99.90
26655;DHT22;14278;50.784;4.630;2022-11-20T10:19:06;9.80;99.90
26655;DHT22;14278;50.784;4.630;2022-11-20T10:29:37;9.60;99.90
26655;DHT22;14278;50.784;4.630;2022-11-20T10:34:53;9.80;99.90
26655;DHT22;14278;50.784;4.630;2022-11-20T10:37:25;10.00;99.90
26655;DHT22;14278;50.784;4.630;2022-11-20T10:42:46;10.10;99.90
26655;DHT22;14278;50.784;4.630;2022-11-20T10:48:12;10.20;99.90
26655;DHT22;14278;50.784;4.630;2022-11-20T10:50:47;9.80;99.90
26655;DHT22;14278;50.784;4.630;2022-11-20T10:59:38;10.20;99.90
26655;DHT22;14278;50.784;4.630;2022-11-20T11:02:23;10.60;99.90
26655;DHT22;14278;50.784;4.630;2022-11-20T11:04:51;10.90;99.90
26655;DHT22;14278;50.784;4.630;2022-11-20T11:07:24;10.70;99.90
26655;DHT22;14278;50.784;4.630;2022-11-20T11:09:54;11.00;99.90
26655;DHT22;14278;50.784;4.630;2022-11-20T11:12:28;11.10;99.90
26655;DHT22;14278;50.784;4.630;2022-11-20T11:14:56;10.80;99.90
26655;DHT22;14278;50.784;4.630;2022-11-20T11:17:29;11.10;99.90
26655;DHT22;14278;50.784;4.630;2022-11-20T11:22:48;10.60;99.90
26655;DHT22;14278;50.784;4.630;2022-11-20T11:27:57;10.30;99.90
26655;DHT22;14278;50.784;4.630;2022-11-20T11:30:24;10.50;99.90
26655;DHT22;14278;50.784;4.630;2022-11-20T11:33:02;10.30;99.90
26655;DHT22;14278;50.784;4.630;2022-11-20T11:35:28;10.30;99.90
26655;DHT22;14278;50.784;4.630;2022-11-20T11:38:06;10.20;99.90
26655;DHT22;14278;50.784;4.630;2022-11-20T11:40:36;10.20;99.90
26655;DHT22;14278;50.784;4.630;2022-11-20T11:43:17;10.10;99.90
26655;DHT22;14278;50.784;4.630;2022-11-20T11:46:03;9.90;99.90
26655;DHT22;14278;50.784;4.630;2022-11-20T11:48:30;9.90;99.90
26655;DHT22;14278;50.784;4.630;2022-11-20T11:50:56;10.00;99.90
26655;DHT22;14278;50.784;4.630;2022-11-20T11:53:23;10.10;99.90
26655;DHT22;14278;50.784;4.630;2022-11-20T11:56:09;10.00;99.90
26655;DHT22;14278;50.784;4.630;2022-11-20T11:58:47;9.80;99.90
26655;DHT22;14278;50.784;4.630;2022-11-20T12:01:44;9.80;99.90
26655;DHT22;14278;50.784;4.630;2022-11-20T12:04:43;9.80;99.90
26655;DHT22;14278;50.784;4.630;2022-11-20T12:07:22;9.70;99.90
26655;DHT22;14278;50.784;4.630;2022-11-20T12:09:53;9.70;99.90
26655;DHT22;14278;50.784;4.630;2022-11-20T12:12:24;9.60;99.90
26655;DHT22;14278;50.784;4.630;2022-11-20T12:14:54;9.60;99.90
26655;DHT22;14278;50.784;4.630;2022-11-20T12:17:21;9.50;99.90
26655;DHT22;14278;50.784;4.630;2022-11-20T12:19:48;9.40;99.90
26655;DHT22;14278;50.784;4.630;2022-11-20T12:25:19;9.50;99.90
26655;DHT22;14278;50.784;4.630;2022-11-20T12:30:17;9.60;99.90
26655;DHT22;14278;50.784;4.630;2022-11-20T12:33:18;9.40;99.90
26655;DHT22;14278;50.784;4.630;2022-11-20T12:47:33;9.20;99.90
26655;DHT22;14278;50.784;4.630;2022-11-20T12:56:01;9.00;99.90
26655;DHT22;14278;50.784;4.630;2022-11-20T12:58:57;9.10;99.90
26655;DHT22;14278;50.784;4.630;2022-11-20T13:07:03;9.30;99.90
26655;DHT22;14278;50.784;4.630;2022-11-20T13:09:30;9.40;99.90
26655;DHT22;14278;50.784;4.630;2022-11-20T13:14:44;9.30;99.90
26655;DHT22;14278;50.784;4.630;2022-11-20T13:17:29;9.50;99.90
26655;DHT22;14278;50.784;4.630;2022-11-20T13:19:57;9.30;99.90
26655;DHT22;14278;50.784;4.630;2022-11-20T13:22:49;9.40;99.90
26655;DHT22;14278;50.784;4.630;2022-11-20T13:25:33;9.40;99.90
26655;DHT22;14278;50.784;4.630;2022-11-20T13:30:48;9.10;99.90
26655;DHT22;14278;50.784;4.630;2022-11-20T13:33:33;9.10;99.90
26655;DHT22;14278;50.784;4.630;2022-11-20T13:36:19;8.90;99.90
26655;DHT22;14278;50.784;4.630;2022-11-20T13:38:50;8.80;99.90
26655;DHT22;14278;50.784;4.630;2022-11-20T13:41:43;8.80;99.90
26655;DHT22;14278;50.784;4.630;2022-11-20T13:44:37;8.70;99.90
26655;DHT22;14278;50.784;4.630;2022-11-20T13:47:21;8.80;99.90
26655;DHT22;14278;50.784;4.630;2022-11-20T13:49:48;8.70;99.90
26655;DHT22;14278;50.784;4.630;2022-11-20T14:00:51;8.50;99.90
26655;DHT22;14278;50.784;4.630;2022-11-20T14:03:25;8.50;99.90
26655;DHT22;14278;50.784;4.630;2022-11-20T14:06:02;8.60;99.90
26655;DHT22;14278;50.784;4.630;2022-11-20T14:08:36;8.70;99.90
26655;DHT22;14278;50.784;4.630;2022-11-20T14:11:23;8.60;99.90
26655;DHT22;14278;50.784;4.630;2022-11-20T14:16:27;8.70;99.90
26655;DHT22;14278;50.784;4.630;2022-11-20T14:18:53;8.60;99.90
26655;DHT22;14278;50.784;4.630;2022-11-20T14:21:27;8.60;99.90
26655;DHT22;14278;50.784;4.630;2022-11-20T14:24:06;8.70;99.90
26655;DHT22;14278;50.784;4.630;2022-11-20T14:26:33;8.80;99.90
26655;DHT22;14278;50.784;4.630;2022-11-20T14:29:00;8.70;99.90
26655;DHT22;14278;50.784;4.630;2022-11-20T14:31:26;8.70;99.90
26655;DHT22;14278;50.784;4.630;2022-11-20T14:33:54;8.70;99.90
26655;DHT22;14278;50.784;4.630;2022-11-20T14:36:22;8.80;99.90
26655;DHT22;14278;50.784;4.630;2022-11-20T14:38:50;8.80;99.90
26655;DHT22;14278;50.784;4.630;2022-11-20T14:41:22;8.70;99.90
26655;DHT22;14278;50.784;4.630;2022-11-20T14:43:57;8.70;99.90
26655;DHT22;14278;50.784;4.630;2022-11-20T14:46:24;8.60;99.90
26655;DHT22;14278;50.784;4.630;2022-11-20T14:48:55;8.70;99.90
26655;DHT22;14278;50.784;4.630;2022-11-20T14:51:39;8.60;99.90
26655;DHT22;14278;50.784;4.630;2022-11-20T14:54:11;8.70;99.90
26655;DHT22;14278;50.784;4.630;2022-11-20T14:56:37;8.70;99.90
26655;DHT22;14278;50.784;4.630;2022-11-20T14:59:03;8.70;99.90
26655;DHT22;14278;50.784;4.630;2022-11-20T15:01:32;8.50;99.90
26655;DHT22;14278;50.784;4.630;2022-11-20T15:04:04;8.60;99.90
26655;DHT22;14278;50.784;4.630;2022-11-20T15:06:30;8.80;99.90
26655;DHT22;14278;50.784;4.630;2022-11-20T15:08:57;8.90;99.90
26655;DHT22;14278;50.784;4.630;2022-11-20T15:11:29;8.90;99.90
26655;DHT22;14278;50.784;4.630;2022-11-20T15:13:56;8.70;99.90
26655;DHT22;14278;50.784;4.630;2022-11-20T15:16:23;8.70;99.90
26655;DHT22;14278;50.784;4.630;2022-11-20T15:18:50;8.70;99.90
26655;DHT22;14278;50.784;4.630;2022-11-20T15:21:18;8.80;99.90
26655;DHT22;14278;50.784;4.630;2022-11-20T15:23:46;8.90;99.90
26655;DHT22;14278;50.784;4.630;2022-11-20T15:26:15;8.80;99.90
26655;DHT22;14278;50.784;4.630;2022-11-20T15:28:45;9.00;99.90
26655;DHT22;14278;50.784;4.630;2022-11-20T15:31:18;9.00;99.90
26655;DHT22;14278;50.784;4.630;2022-11-20T15:33:44;8.90;99.90
26655;DHT22;14278;50.784;4.630;2022-11-20T15:36:10;9.00;99.90
26655;DHT22;14278;50.784;4.630;2022-11-20T15:38:37;9.10;99.90
26655;DHT22;14278;50.784;4.630;2022-11-20T15:41:03;9.00;99.90
26655;DHT22;14278;50.784;4.630;2022-11-20T15:43:29;9.00;99.90
26655;DHT22;14278;50.784;4.630;2022-11-20T15:46:06;9.00;99.90
26655;DHT22;14278;50.784;4.630;2022-11-20T15:48:45;9.20;99.90
26655;DHT22;14278;50.784;4.630;2022-11-20T15:53:58;9.00;99.90
26655;DHT22;14278;50.784;4.630;2022-11-20T15:56:24;9.00;99.90
26655;DHT22;14278;50.784;4.630;2022-11-20T15:58:50;9.00;99.90
26655;DHT22;14278;50.784;4.630;2022-11-20T16:01:18;9.00;99.90
26655;DHT22;14278;50.784;4.630;2022-11-20T16:03:46;9.10;99.90
26655;DHT22;14278;50.784;4.630;2022-11-20T16:06:12;9.10;99.90
26655;DHT22;14278;50.784;4.630;2022-11-20T16:08:38;9.00;99.90
26655;DHT22;14278;50.784;4.630;2022-11-20T16:11:04;9.00;99.90
26655;DHT22;14278;50.784;4.630;2022-11-20T16:13:31;9.10;99.90
26655;DHT22;14278;50.784;4.630;2022-11-20T16:16:22;9.00;99.90
26655;DHT22;14278;50.784;4.630;2022-11-20T16:18:50;9.00;99.90
26655;DHT22;14278;50.784;4.630;2022-11-20T16:21:16;9.10;99.90
26655;DHT22;14278;50.784;4.630;2022-11-20T16:23:42;9.20;99.90
26655;DHT22;14278;50.784;4.630;2022-11-20T16:26:16;9.20;99.90
26655;DHT22;14278;50.784;4.630;2022-11-20T16:28:46;9.30;99.90
26655;DHT22;14278;50.784;4.630;2022-11-20T16:31:14;9.40;99.90
26655;DHT22;14278;50.784;4.630;2022-11-20T16:33:40;9.40;99.90
26655;DHT22;14278;50.784;4.630;2022-11-20T16:36:08;9.20;99.90
26655;DHT22;14278;50.784;4.630;2022-11-20T16:38:34;9.40;99.90
26655;DHT22;14278;50.784;4.630;2022-11-20T16:41:03;9.20;99.90
26655;DHT22;14278;50.784;4.630;2022-11-20T16:43:29;9.10;99.90
26655;DHT22;14278;50.784;4.630;2022-11-20T16:45:55;9.20;99.90
26655;DHT22;14278;50.784;4.630;2022-11-20T16:48:21;9.30;99.90
26655;DHT22;14278;50.784;4.630;2022-11-20T16:50:51;9.20;99.90
26655;DHT22;14278;50.784;4.630;2022-11-20T16:53:21;9.20;99.90
26655;DHT22;14278;50.784;4.630;2022-11-20T16:55:48;9.20;99.90
26655;DHT22;14278;50.784;4.630;2022-11-20T16:58:14;9.20;99.90
26655;DHT22;14278;50.784;4.630;2022-11-20T17:00:40;9.30;99.90
26655;DHT22;14278;50.784;4.630;2022-11-20T17:03:07;9.50;99.90
26655;DHT22;14278;50.784;4.630;2022-11-20T17:05:33;9.50;99.90
26655;DHT22;14278;50.784;4.630;2022-11-20T17:07:59;9.50;99.90
26655;DHT22;14278;50.784;4.630;2022-11-20T17:10:25;9.30;99.90
26655;DHT22;14278;50.784;4.630;2022-11-20T17:12:51;9.30;99.90
26655;DHT22;14278;50.784;4.630;2022-11-20T17:15:17;9.30;99.90
26655;DHT22;14278;50.784;4.630;2022-11-20T17:17:43;9.30;99.90
26655;DHT22;14278;50.784;4.630;2022-11-20T17:20:10;9.10;99.90
26655;DHT22;14278;50.784;4.630;2022-11-20T17:22:37;9.20;99.90
26655;DHT22;14278;50.784;4.630;2022-11-20T17:25:04;9.10;99.90
26655;DHT22;14278;50.784;4.630;2022-11-20T17:27:29;9.00;99.90
26655;DHT22;14278;50.784;4.630;2022-11-20T17:29:55;8.90;99.90
26655;DHT22;14278;50.784;4.630;2022-11-20T17:32:23;9.10;99.90
26655;DHT22;14278;50.784;4.630;2022-11-20T17:34:49;9.20;99.90